sensor_id;sensor_type;location;lat;lon;timestamp;temperature;humidity
69382;DHT22;56560;50.692;12.844;2023-02-15T00:00:19;-2.20;93.50
69382;DHT22;56560;50.692;12.844;2023-02-15T00:02:45;-2.20;93.20
69382;DHT22;56560;50.692;12.844;2023-02-15T00:05:11;-2.20;93.20
69382;DHT22;56560;50.692;12.844;2023-02-15T00:07:36;-2.20;93.20
69382;DHT22;56560;50.692;12.844;2023-02-15T00:10:03;-2.20;93.10
69382;DHT22;56560;50.692;12.844;2023-02-15T00:12:29;-2.20;93.50
69382;DHT22;56560;50.692;12.844;2023-02-15T00:14:55;-2.20;93.90
69382;DHT22;56560;50.692;12.844;2023-02-15T00:17:21;-2.20;93.90
69382;DHT22;56560;50.692;12.844;2023-02-15T00:19:46;-2.20;93.60
69382;DHT22;56560;50.692;12.844;2023-02-15T00:22:12;-2.30;93.50
69382;DHT22;56560;50.692;12.844;2023-02-15T00:24:38;-2.30;93.50
69382;DHT22;56560;50.692;12.844;2023-02-15T00:27:04;-2.30;93.50
69382;DHT22;56560;50.692;12.844;2023-02-15T00:29:30;-2.30;93.40
69382;DHT22;56560;50.692;12.844;2023-02-15T00:31:57;-2.30;93.40
69382;DHT22;56560;50.692;12.844;2023-02-15T00:34:25;-2.30;93.20
69382;DHT22;56560;50.692;12.844;2023-02-15T00:36:51;-2.30;93.10
69382;DHT22;56560;50.692;12.844;2023-02-15T00:39:18;-2.30;93.10
69382;DHT22;56560;50.692;12.844;2023-02-15T00:41:45;-2.30;93.20
69382;DHT22;56560;50.692;12.844;2023-02-15T00:44:12;-2.30;93.00
69382;DHT22;56560;50.692;12.844;2023-02-15T00:46:38;-2.30;92.80
69382;DHT22;56560;50.692;12.844;2023-02-15T00:49:04;-2.30;92.30
69382;DHT22;56560;50.692;12.844;2023-02-15T00:51:30;-2.40;92.10
69382;DHT22;56560;50.692;12.844;2023-02-15T00:53:56;-2.40;92.10
69382;DHT22;56560;50.692;12.844;2023-02-15T00:56:22;-2.50;92.20
69382;DHT22;56560;50.692;12.844;2023-02-15T00:58:47;-2.50;92.10
69382;DHT22;56560;50.692;12.844;2023-02-15T01:01:15;-2.50;92.20
69382;DHT22;56560;50.692;12.844;2023-02-15T01:03:42;-2.50;92.50
69382;DHT22;56560;50.692;12.844;2023-02-15T01:06:08;-2.50;93.00
69382;DHT22;56560;50.692;12.844;2023-02-15T01:08:34;-2.50;93.60
69382;DHT22;56560;50.692;12.844;2023-02-15T01:11:15;-2.50;93.70
69382;DHT22;56560;50.692;12.844;2023-02-15T01:13:48;-2.50;93.50
69382;DHT22;56560;50.692;12.844;2023-02-15T01:16:14;-2.50;93.30
69382;DHT22;56560;50.692;12.844;2023-02-15T01:18:40;-2.50;93.00
69382;DHT22;56560;50.692;12.844;2023-02-15T01:21:17;-2.50;92.60
69382;DHT22;56560;50.692;12.844;2023-02-15T01:23:43;-2.60;92.30
69382;DHT22;56560;50.692;12.844;2023-02-15T01:26:09;-2.60;92.00
69382;DHT22;56560;50.692;12.844;2023-02-15T01:28:36;-2.70;92.10
69382;DHT22;56560;50.692;12.844;2023-02-15T01:31:10;-2.70;92.80
69382;DHT22;56560;50.692;12.844;2023-02-15T01:33:39;-2.70;93.50
69382;DHT22;56560;50.692;12.844;2023-02-15T01:36:05;-2.60;93.80
69382;DHT22;56560;50.692;12.844;2023-02-15T01:38:31;-2.60;93.80
69382;DHT22;56560;50.692;12.844;2023-02-15T01:40:57;-2.60;93.90
69382;DHT22;56560;50.692;12.844;2023-02-15T01:43:45;-2.60;93.70
69382;DHT22;56560;50.692;12.844;2023-02-15T01:46:13;-2.60;93.30
69382;DHT22;56560;50.692;12.844;2023-02-15T01:48:46;-2.60;93.30
69382;DHT22;56560;50.692;12.844;2023-02-15T01:51:13;-2.70;93.30
69382;DHT22;56560;50.692;12.844;2023-02-15T01:53:51;-2.60;93.40
69382;DHT22;56560;50.692;12.844;2023-02-15T01:56:22;-2.60;93.40
69382;DHT22;56560;50.692;12.844;2023-02-15T01:58:50;-2.70;93.70
69382;DHT22;56560;50.692;12.844;2023-02-15T02:01:18;-2.70;93.80
69382;DHT22;56560;50.692;12.844;2023-02-15T02:06:39;-2.60;94.20
69382;DHT22;56560;50.692;12.844;2023-02-15T02:09:06;-2.60;94.00
69382;DHT22;56560;50.692;12.844;2023-02-15T02:11:33;-2.60;93.10
69382;DHT22;56560;50.692;12.844;2023-02-15T02:13:59;-2.60;93.30
69382;DHT22;56560;50.692;12.844;2023-02-15T02:17:06;-2.60;92.80
69382;DHT22;56560;50.692;12.844;2023-02-15T02:19:46;-2.70;92.30
69382;DHT22;56560;50.692;12.844;2023-02-15T02:22:49;-2.80;92.10
69382;DHT22;56560;50.692;12.844;2023-02-15T02:34:26;-2.80;93.10
69382;DHT22;56560;50.692;12.844;2023-02-15T02:37:08;-2.80;93.50
69382;DHT22;56560;50.692;12.844;2023-02-15T02:42:49;-2.90;93.20
69382;DHT22;56560;50.692;12.844;2023-02-15T02:45:28;-2.90;93.10
69382;DHT22;56560;50.692;12.844;2023-02-15T02:48:04;-2.90;93.00
69382;DHT22;56560;50.692;12.844;2023-02-15T02:50:31;-2.90;92.80
69382;DHT22;56560;50.692;12.844;2023-02-15T02:52:58;-2.90;93.10
69382;DHT22;56560;50.692;12.844;2023-02-15T03:00:59;-2.90;93.10
69382;DHT22;56560;50.692;12.844;2023-02-15T03:03:31;-2.90;92.70
69382;DHT22;56560;50.692;12.844;2023-02-15T03:06:09;-3.00;92.50
69382;DHT22;56560;50.692;12.844;2023-02-15T03:08:42;-3.00;92.50
69382;DHT22;56560;50.692;12.844;2023-02-15T03:11:11;-3.00;92.50
69382;DHT22;56560;50.692;12.844;2023-02-15T03:13:37;-3.00;92.70
69382;DHT22;56560;50.692;12.844;2023-02-15T03:16:04;-3.00;92.30
69382;DHT22;56560;50.692;12.844;2023-02-15T03:19:15;-3.00;92.30
69382;DHT22;56560;50.692;12.844;2023-02-15T03:21:50;-3.10;92.40
69382;DHT22;56560;50.692;12.844;2023-02-15T03:24:27;-3.10;92.40
69382;DHT22;56560;50.692;12.844;2023-02-15T03:26:54;-3.10;93.00
69382;DHT22;56560;50.692;12.844;2023-02-15T03:29:24;-3.10;93.10
69382;DHT22;56560;50.692;12.844;2023-02-15T03:31:54;-3.00;93.10
69382;DHT22;56560;50.692;12.844;2023-02-15T03:34:22;-3.00;93.10
69382;DHT22;56560;50.692;12.844;2023-02-15T03:37:09;-3.10;93.10
69382;DHT22;56560;50.692;12.844;2023-02-15T03:39:51;-3.10;92.90
69382;DHT22;56560;50.692;12.844;2023-02-15T03:42:32;-3.10;93.00
69382;DHT22;56560;50.692;12.844;2023-02-15T03:45:24;-3.10;93.50
69382;DHT22;56560;50.692;12.844;2023-02-15T03:47:52;-3.10;93.70
69382;DHT22;56560;50.692;12.844;2023-02-15T03:50:24;-3.10;93.40
69382;DHT22;56560;50.692;12.844;2023-02-15T03:53:11;-3.10;93.10
69382;DHT22;56560;50.692;12.844;2023-02-15T03:55:38;-3.10;93.30
69382;DHT22;56560;50.692;12.844;2023-02-15T03:58:07;-3.10;93.70
69382;DHT22;56560;50.692;12.844;2023-02-15T04:00:58;-3.10;93.70
69382;DHT22;56560;50.692;12.844;2023-02-15T04:03:54;-3.10;93.60
69382;DHT22;56560;50.692;12.844;2023-02-15T04:06:21;-3.10;93.70
69382;DHT22;56560;50.692;12.844;2023-02-15T04:08:47;-3.10;93.30
69382;DHT22;56560;50.692;12.844;2023-02-15T04:11:31;-3.10;92.90
69382;DHT22;56560;50.692;12.844;2023-02-15T04:13:56;-3.20;92.20
69382;DHT22;56560;50.692;12.844;2023-02-15T04:16:23;-3.20;92.00
69382;DHT22;56560;50.692;12.844;2023-02-15T04:18:49;-3.20;92.50
69382;DHT22;56560;50.692;12.844;2023-02-15T04:21:33;-3.20;92.50
69382;DHT22;56560;50.692;12.844;2023-02-15T04:24:18;-3.20;92.50
69382;DHT22;56560;50.692;12.844;2023-02-15T04:27:04;-3.20;92.70
69382;DHT22;56560;50.692;12.844;2023-02-15T04:29:30;-3.20;92.30
69382;DHT22;56560;50.692;12.844;2023-02-15T04:31:59;-3.20;92.10
69382;DHT22;56560;50.692;12.844;2023-02-15T04:34:26;-3.20;91.90
69382;DHT22;56560;50.692;12.844;2023-02-15T04:36:51;-3.30;91.90
69382;DHT22;56560;50.692;12.844;2023-02-15T04:39:18;-3.30;92.00
69382;DHT22;56560;50.692;12.844;2023-02-15T04:41:44;-3.30;92.30
69382;DHT22;56560;50.692;12.844;2023-02-15T04:44:09;-3.30;92.20
69382;DHT22;56560;50.692;12.844;2023-02-15T04:46:37;-3.20;92.20
69382;DHT22;56560;50.692;12.844;2023-02-15T04:49:03;-3.30;92.30
69382;DHT22;56560;50.692;12.844;2023-02-15T04:51:29;-3.30;92.70
69382;DHT22;56560;50.692;12.844;2023-02-15T04:53:55;-3.30;92.80
69382;DHT22;56560;50.692;12.844;2023-02-15T04:56:22;-3.30;93.10
69382;DHT22;56560;50.692;12.844;2023-02-15T04:58:47;-3.30;93.30
69382;DHT22;56560;50.692;12.844;2023-02-15T05:01:13;-3.30;93.40
69382;DHT22;56560;50.692;12.844;2023-02-15T05:03:39;-3.20;93.20
69382;DHT22;56560;50.692;12.844;2023-02-15T05:06:05;-3.20;93.00
69382;DHT22;56560;50.692;12.844;2023-02-15T05:08:31;-3.20;92.80
69382;DHT22;56560;50.692;12.844;2023-02-15T05:10:57;-3.20;92.60
69382;DHT22;56560;50.692;12.844;2023-02-15T05:13:24;-3.30;91.90
69382;DHT22;56560;50.692;12.844;2023-02-15T05:15:52;-3.30;91.70
69382;DHT22;56560;50.692;12.844;2023-02-15T05:18:19;-3.40;91.60
69382;DHT22;56560;50.692;12.844;2023-02-15T05:20:46;-3.40;91.90
69382;DHT22;56560;50.692;12.844;2023-02-15T05:23:12;-3.40;92.00
69382;DHT22;56560;50.692;12.844;2023-02-15T05:25:38;-3.40;91.90
69382;DHT22;56560;50.692;12.844;2023-02-15T05:28:24;-3.40;92.20
69382;DHT22;56560;50.692;12.844;2023-02-15T05:31:14;-3.40;92.20
69382;DHT22;56560;50.692;12.844;2023-02-15T05:33:38;-3.40;92.30
69382;DHT22;56560;50.692;12.844;2023-02-15T05:36:05;-3.40;92.20
69382;DHT22;56560;50.692;12.844;2023-02-15T05:38:31;-3.40;92.30
69382;DHT22;56560;50.692;12.844;2023-02-15T05:40:57;-3.50;92.20
69382;DHT22;56560;50.692;12.844;2023-02-15T05:43:23;-3.50;92.50
69382;DHT22;56560;50.692;12.844;2023-02-15T05:45:51;-3.40;92.70
69382;DHT22;56560;50.692;12.844;2023-02-15T05:48:18;-3.40;92.40
69382;DHT22;56560;50.692;12.844;2023-02-15T05:50:44;-3.40;92.20
69382;DHT22;56560;50.692;12.844;2023-02-15T05:53:10;-3.50;91.80
69382;DHT22;56560;50.692;12.844;2023-02-15T05:55:40;-3.50;91.60
69382;DHT22;56560;50.692;12.844;2023-02-15T05:58:08;-3.50;91.70
69382;DHT22;56560;50.692;12.844;2023-02-15T06:00:34;-3.50;91.80
69382;DHT22;56560;50.692;12.844;2023-02-15T06:03:00;-3.50;91.80
69382;DHT22;56560;50.692;12.844;2023-02-15T06:05:25;-3.50;91.60
69382;DHT22;56560;50.692;12.844;2023-02-15T06:07:54;-3.50;91.30
69382;DHT22;56560;50.692;12.844;2023-02-15T06:10:19;-3.50;91.20
69382;DHT22;56560;50.692;12.844;2023-02-15T06:12:45;-3.50;91.10
69382;DHT22;56560;50.692;12.844;2023-02-15T06:15:11;-3.50;90.90
69382;DHT22;56560;50.692;12.844;2023-02-15T06:17:36;-3.50;91.00
69382;DHT22;56560;50.692;12.844;2023-02-15T06:20:02;-3.50;90.90
69382;DHT22;56560;50.692;12.844;2023-02-15T06:22:28;-3.50;90.80
69382;DHT22;56560;50.692;12.844;2023-02-15T06:24:54;-3.50;90.50
69382;DHT22;56560;50.692;12.844;2023-02-15T06:27:20;-3.50;90.70
69382;DHT22;56560;50.692;12.844;2023-02-15T06:29:45;-3.50;90.50
69382;DHT22;56560;50.692;12.844;2023-02-15T06:32:11;-3.50;90.50
69382;DHT22;56560;50.692;12.844;2023-02-15T06:34:36;-3.50;90.40
69382;DHT22;56560;50.692;12.844;2023-02-15T06:37:02;-3.50;90.50
69382;DHT22;56560;50.692;12.844;2023-02-15T06:39:28;-3.50;91.00
69382;DHT22;56560;50.692;12.844;2023-02-15T06:41:53;-3.50;91.40
69382;DHT22;56560;50.692;12.844;2023-02-15T06:44:19;-3.50;91.60
69382;DHT22;56560;50.692;12.844;2023-02-15T06:46:45;-3.40;91.90
69382;DHT22;56560;50.692;12.844;2023-02-15T06:49:10;-3.40;91.90
69382;DHT22;56560;50.692;12.844;2023-02-15T06:51:39;-3.30;91.60
69382;DHT22;56560;50.692;12.844;2023-02-15T06:54:09;-3.30;91.50
69382;DHT22;56560;50.692;12.844;2023-02-15T06:56:37;-3.20;91.40
69382;DHT22;56560;50.692;12.844;2023-02-15T06:59:04;-3.20;91.60
69382;DHT22;56560;50.692;12.844;2023-02-15T07:01:30;-3.10;91.40
69382;DHT22;56560;50.692;12.844;2023-02-15T07:04:00;-3.10;90.80
69382;DHT22;56560;50.692;12.844;2023-02-15T07:06:31;-3.00;90.10
69382;DHT22;56560;50.692;12.844;2023-02-15T07:09:01;-3.00;89.60
69382;DHT22;56560;50.692;12.844;2023-02-15T07:11:27;-3.00;89.70
69382;DHT22;56560;50.692;12.844;2023-02-15T07:14:14;-2.90;90.10
69382;DHT22;56560;50.692;12.844;2023-02-15T07:16:39;-2.80;90.30
69382;DHT22;56560;50.692;12.844;2023-02-15T07:19:05;-2.70;89.90
69382;DHT22;56560;50.692;12.844;2023-02-15T07:21:33;-2.60;89.50
69382;DHT22;56560;50.692;12.844;2023-02-15T07:23:58;-2.50;89.20
69382;DHT22;56560;50.692;12.844;2023-02-15T07:26:25;-2.50;88.40
69382;DHT22;56560;50.692;12.844;2023-02-15T07:28:51;-2.40;88.40
69382;DHT22;56560;50.692;12.844;2023-02-15T07:31:16;-2.40;88.60
69382;DHT22;56560;50.692;12.844;2023-02-15T07:33:42;-2.30;88.90
69382;DHT22;56560;50.692;12.844;2023-02-15T07:36:08;-2.20;89.00
69382;DHT22;56560;50.692;12.844;2023-02-15T07:38:39;-2.10;88.90
69382;DHT22;56560;50.692;12.844;2023-02-15T07:41:07;-2.00;88.60
69382;DHT22;56560;50.692;12.844;2023-02-15T07:43:36;-2.00;88.60
69382;DHT22;56560;50.692;12.844;2023-02-15T07:46:04;-1.80;88.90
69382;DHT22;56560;50.692;12.844;2023-02-15T07:48:30;-1.70;88.50
69382;DHT22;56560;50.692;12.844;2023-02-15T07:51:04;-1.60;88.60
69382;DHT22;56560;50.692;12.844;2023-02-15T07:53:39;-1.40;88.50
69382;DHT22;56560;50.692;12.844;2023-02-15T07:56:07;-1.20;88.40
69382;DHT22;56560;50.692;12.844;2023-02-15T07:58:34;-1.00;88.20
69382;DHT22;56560;50.692;12.844;2023-02-15T08:03:43;-0.60;87.30
69382;DHT22;56560;50.692;12.844;2023-02-15T08:06:09;-0.40;86.70
69382;DHT22;56560;50.692;12.844;2023-02-15T08:08:37;-0.30;86.30
69382;DHT22;56560;50.692;12.844;2023-02-15T08:13:57;0.10;85.80
69382;DHT22;56560;50.692;12.844;2023-02-15T08:19:05;0.40;84.60
69382;DHT22;56560;50.692;12.844;2023-02-15T08:21:31;0.50;85.00
69382;DHT22;56560;50.692;12.844;2023-02-15T08:23:58;0.60;84.00
69382;DHT22;56560;50.692;12.844;2023-02-15T08:26:25;0.60;84.00
69382;DHT22;56560;50.692;12.844;2023-02-15T08:28:51;0.70;84.80
69382;DHT22;56560;50.692;12.844;2023-02-15T08:31:17;0.80;84.50
69382;DHT22;56560;50.692;12.844;2023-02-15T08:33:45;1.00;84.70
69382;DHT22;56560;50.692;12.844;2023-02-15T08:36:16;1.20;83.80
69382;DHT22;56560;50.692;12.844;2023-02-15T08:38:43;1.40;83.30
69382;DHT22;56560;50.692;12.844;2023-02-15T08:41:23;1.50;83.70
69382;DHT22;56560;50.692;12.844;2023-02-15T08:43:52;1.60;83.50
69382;DHT22;56560;50.692;12.844;2023-02-15T08:46:21;1.70;82.80
69382;DHT22;56560;50.692;12.844;2023-02-15T08:48:48;1.90;82.30
69382;DHT22;56560;50.692;12.844;2023-02-15T08:51:16;1.90;82.40
69382;DHT22;56560;50.692;12.844;2023-02-15T08:53:44;2.10;83.10
69382;DHT22;56560;50.692;12.844;2023-02-15T08:56:11;2.20;82.10
69382;DHT22;56560;50.692;12.844;2023-02-15T08:58:37;2.30;81.90
69382;DHT22;56560;50.692;12.844;2023-02-15T09:01:18;2.50;81.70
69382;DHT22;56560;50.692;12.844;2023-02-15T09:03:47;2.60;81.80
69382;DHT22;56560;50.692;12.844;2023-02-15T09:06:14;2.70;81.10
69382;DHT22;56560;50.692;12.844;2023-02-15T09:08:39;2.80;81.30
69382;DHT22;56560;50.692;12.844;2023-02-15T09:13:32;3.00;81.20
69382;DHT22;56560;50.692;12.844;2023-02-15T09:16:02;3.20;81.50
69382;DHT22;56560;50.692;12.844;2023-02-15T09:18:30;3.50;80.90
69382;DHT22;56560;50.692;12.844;2023-02-15T09:20:56;3.70;79.50
69382;DHT22;56560;50.692;12.844;2023-02-15T09:23:22;3.80;79.60
69382;DHT22;56560;50.692;12.844;2023-02-15T09:25:47;3.90;78.10
69382;DHT22;56560;50.692;12.844;2023-02-15T09:28:13;4.00;77.50
69382;DHT22;56560;50.692;12.844;2023-02-15T09:30:39;4.10;77.20
69382;DHT22;56560;50.692;12.844;2023-02-15T09:33:04;4.30;77.80
69382;DHT22;56560;50.692;12.844;2023-02-15T09:35:30;4.50;77.60
69382;DHT22;56560;50.692;12.844;2023-02-15T09:37:55;4.80;77.80
69382;DHT22;56560;50.692;12.844;2023-02-15T09:40:21;4.90;76.60
69382;DHT22;56560;50.692;12.844;2023-02-15T09:43:12;5.10;75.40
69382;DHT22;56560;50.692;12.844;2023-02-15T09:45:50;5.20;74.30
69382;DHT22;56560;50.692;12.844;2023-02-15T09:48:39;5.40;73.50
69382;DHT22;56560;50.692;12.844;2023-02-15T09:51:24;5.70;72.80
69382;DHT22;56560;50.692;12.844;2023-02-15T09:54:07;5.80;70.30
69382;DHT22;56560;50.692;12.844;2023-02-15T09:56:45;6.00;69.80
69382;DHT22;56560;50.692;12.844;2023-02-15T10:01:58;6.30;68.20
69382;DHT22;56560;50.692;12.844;2023-02-15T10:10:32;6.80;66.40
69382;DHT22;56560;50.692;12.844;2023-02-15T10:18:42;7.40;65.90
69382;DHT22;56560;50.692;12.844;2023-02-15T10:26:31;7.90;63.00
69382;DHT22;56560;50.692;12.844;2023-02-15T10:29:09;8.00;63.20
69382;DHT22;56560;50.692;12.844;2023-02-15T10:31:40;8.20;62.20
69382;DHT22;56560;50.692;12.844;2023-02-15T10:51:03;9.70;58.80
69382;DHT22;56560;50.692;12.844;2023-02-15T11:01:53;10.40;58.00
69382;DHT22;56560;50.692;12.844;2023-02-15T11:07:33;10.90;58.40
69382;DHT22;56560;50.692;12.844;2023-02-15T11:10:29;11.20;58.60
69382;DHT22;56560;50.692;12.844;2023-02-15T11:12:57;11.40;58.70
69382;DHT22;56560;50.692;12.844;2023-02-15T11:15:39;11.60;58.70
69382;DHT22;56560;50.692;12.844;2023-02-15T11:18:14;11.70;58.50
69382;DHT22;56560;50.692;12.844;2023-02-15T11:20:53;12.00;56.70
69382;DHT22;56560;50.692;12.844;2023-02-15T11:23:20;12.20;54.80
69382;DHT22;56560;50.692;12.844;2023-02-15T11:28:38;12.60;55.90
69382;DHT22;56560;50.692;12.844;2023-02-15T11:31:37;12.80;55.40
69382;DHT22;56560;50.692;12.844;2023-02-15T11:34:15;13.00;52.10
69382;DHT22;56560;50.692;12.844;2023-02-15T11:36:45;13.20;47.80
69382;DHT22;56560;50.692;12.844;2023-02-15T11:39:15;13.50;43.10
69382;DHT22;56560;50.692;12.844;2023-02-15T11:41:46;13.80;43.70
69382;DHT22;56560;50.692;12.844;2023-02-15T11:44:14;14.00;39.30
69382;DHT22;56560;50.692;12.844;2023-02-15T11:46:41;14.20;36.40
69382;DHT22;56560;50.692;12.844;2023-02-15T11:49:31;14.40;35.90
69382;DHT22;56560;50.692;12.844;2023-02-15T11:51:58;14.90;34.00
69382;DHT22;56560;50.692;12.844;2023-02-15T11:54:30;15.50;34.60
69382;DHT22;56560;50.692;12.844;2023-02-15T11:59:58;17.30;33.10
69382;DHT22;56560;50.692;12.844;2023-02-15T12:02:25;17.90;33.00
69382;DHT22;56560;50.692;12.844;2023-02-15T12:05:03;18.50;31.90
69382;DHT22;56560;50.692;12.844;2023-02-15T12:07:36;19.10;31.20
69382;DHT22;56560;50.692;12.844;2023-02-15T12:10:16;19.60;30.90
69382;DHT22;56560;50.692;12.844;2023-02-15T12:12:43;20.00;28.80
69382;DHT22;56560;50.692;12.844;2023-02-15T12:15:10;20.10;29.40
69382;DHT22;56560;50.692;12.844;2023-02-15T12:17:51;20.50;30.20
69382;DHT22;56560;50.692;12.844;2023-02-15T12:23:00;20.80;29.60
69382;DHT22;56560;50.692;12.844;2023-02-15T12:25:52;21.10;28.80
69382;DHT22;56560;50.692;12.844;2023-02-15T12:30:48;21.30;28.80
69382;DHT22;56560;50.692;12.844;2023-02-15T12:33:17;21.00;28.40
69382;DHT22;56560;50.692;12.844;2023-02-15T12:36:40;20.50;29.90
69382;DHT22;56560;50.692;12.844;2023-02-15T12:39:19;20.10;30.40
69382;DHT22;56560;50.692;12.844;2023-02-15T12:41:58;20.20;31.20
69382;DHT22;56560;50.692;12.844;2023-02-15T12:44:34;20.60;31.90
69382;DHT22;56560;50.692;12.844;2023-02-15T12:47:25;20.60;31.90
69382;DHT22;56560;50.692;12.844;2023-02-15T12:52:47;21.10;32.40
69382;DHT22;56560;50.692;12.844;2023-02-15T12:55:21;21.40;32.20
69382;DHT22;56560;50.692;12.844;2023-02-15T12:57:47;21.60;31.00
69382;DHT22;56560;50.692;12.844;2023-02-15T13:02:51;22.00;31.60
69382;DHT22;56560;50.692;12.844;2023-02-15T13:07:52;21.90;30.80
69382;DHT22;56560;50.692;12.844;2023-02-15T13:10:40;21.70;31.00
69382;DHT22;56560;50.692;12.844;2023-02-15T13:13:11;21.90;31.60
69382;DHT22;56560;50.692;12.844;2023-02-15T13:15:45;21.90;30.50
69382;DHT22;56560;50.692;12.844;2023-02-15T13:18:17;21.90;30.60
69382;DHT22;56560;50.692;12.844;2023-02-15T13:20:44;22.10;30.90
69382;DHT22;56560;50.692;12.844;2023-02-15T13:23:28;22.50;31.50
69382;DHT22;56560;50.692;12.844;2023-02-15T13:25:55;22.70;30.00
69382;DHT22;56560;50.692;12.844;2023-02-15T13:28:37;22.80;29.60
69382;DHT22;56560;50.692;12.844;2023-02-15T13:31:19;22.90;30.00
69382;DHT22;56560;50.692;12.844;2023-02-15T13:33:53;23.10;29.70
69382;DHT22;56560;50.692;12.844;2023-02-15T13:53:18;22.30;30.60
69382;DHT22;56560;50.692;12.844;2023-02-15T13:55:53;22.60;29.80
69382;DHT22;56560;50.692;12.844;2023-02-15T13:58:51;22.70;29.80
69382;DHT22;56560;50.692;12.844;2023-02-15T14:01:46;22.80;29.10
69382;DHT22;56560;50.692;12.844;2023-02-15T14:18:20;23.10;28.60
69382;DHT22;56560;50.692;12.844;2023-02-15T14:21:06;23.40;28.10
69382;DHT22;56560;50.692;12.844;2023-02-15T14:23:56;23.10;28.00
69382;DHT22;56560;50.692;12.844;2023-02-15T14:26:39;23.00;28.20
69382;DHT22;56560;50.692;12.844;2023-02-15T14:29:45;22.90;28.30
69382;DHT22;56560;50.692;12.844;2023-02-15T14:32:35;23.00;28.10
69382;DHT22;56560;50.692;12.844;2023-02-15T14:35:13;23.20;28.20
69382;DHT22;56560;50.692;12.844;2023-02-15T14:37:52;23.00;28.50
69382;DHT22;56560;50.692;12.844;2023-02-15T14:43:21;20.60;29.70
69382;DHT22;56560;50.692;12.844;2023-02-15T14:46:36;19.00;30.50
69382;DHT22;56560;50.692;12.844;2023-02-15T14:48:46;18.80;30.80
69382;DHT22;56560;50.692;12.844;2023-02-15T15:04:46;13.90;36.60
69382;DHT22;56560;50.692;12.844;2023-02-15T15:07:22;13.60;36.60
69382;DHT22;56560;50.692;12.844;2023-02-15T15:10:07;13.00;37.90
69382;DHT22;56560;50.692;12.844;2023-02-15T15:12:57;12.50;38.80
69382;DHT22;56560;50.692;12.844;2023-02-15T15:17:59;11.70;39.00
69382;DHT22;56560;50.692;12.844;2023-02-15T15:20:45;11.50;39.80
69382;DHT22;56560;50.692;12.844;2023-02-15T15:36:31;10.00;44.40
69382;DHT22;56560;50.692;12.844;2023-02-15T15:49:37;8.60;50.30
69382;DHT22;56560;50.692;12.844;2023-02-15T15:52:18;8.30;52.60
69382;DHT22;56560;50.692;12.844;2023-02-15T15:54:47;8.00;56.40
69382;DHT22;56560;50.692;12.844;2023-02-15T15:57:30;7.60;57.00
69382;DHT22;56560;50.692;12.844;2023-02-15T15:59:57;7.40;57.10
69382;DHT22;56560;50.692;12.844;2023-02-15T16:02:26;7.20;57.00
69382;DHT22;56560;50.692;12.844;2023-02-15T16:04:52;7.10;58.90
69382;DHT22;56560;50.692;12.844;2023-02-15T16:10:01;6.90;61.50
69382;DHT22;56560;50.692;12.844;2023-02-15T16:12:35;6.70;62.30
69382;DHT22;56560;50.692;12.844;2023-02-15T16:15:05;6.60;62.70
69382;DHT22;56560;50.692;12.844;2023-02-15T16:17:42;6.30;63.00
69382;DHT22;56560;50.692;12.844;2023-02-15T16:22:46;5.90;65.30
69382;DHT22;56560;50.692;12.844;2023-02-15T16:25:35;5.70;66.20
69382;DHT22;56560;50.692;12.844;2023-02-15T16:28:22;5.50;67.20
69382;DHT22;56560;50.692;12.844;2023-02-15T16:31:11;5.30;68.20
69382;DHT22;56560;50.692;12.844;2023-02-15T16:33:38;5.10;67.20
69382;DHT22;56560;50.692;12.844;2023-02-15T16:36:05;4.90;66.90
69382;DHT22;56560;50.692;12.844;2023-02-15T16:41:10;4.40;68.40
69382;DHT22;56560;50.692;12.844;2023-02-15T16:43:37;4.20;68.90
69382;DHT22;56560;50.692;12.844;2023-02-15T16:46:06;4.10;70.80
69382;DHT22;56560;50.692;12.844;2023-02-15T16:48:39;3.80;70.50
69382;DHT22;56560;50.692;12.844;2023-02-15T16:51:06;3.70;71.70
69382;DHT22;56560;50.692;12.844;2023-02-15T16:53:31;3.70;72.50
69382;DHT22;56560;50.692;12.844;2023-02-15T16:55:59;3.70;71.90
69382;DHT22;56560;50.692;12.844;2023-02-15T16:58:38;3.60;71.40
69382;DHT22;56560;50.692;12.844;2023-02-15T17:01:07;3.40;74.10
69382;DHT22;56560;50.692;12.844;2023-02-15T17:03:34;3.30;74.20
69382;DHT22;56560;50.692;12.844;2023-02-15T17:06:03;3.20;75.20
69382;DHT22;56560;50.692;12.844;2023-02-15T17:08:44;3.20;74.30
69382;DHT22;56560;50.692;12.844;2023-02-15T17:11:36;3.10;74.00
69382;DHT22;56560;50.692;12.844;2023-02-15T17:19:50;2.90;72.10
69382;DHT22;56560;50.692;12.844;2023-02-15T17:22:23;2.80;71.70
69382;DHT22;56560;50.692;12.844;2023-02-15T17:24:57;2.80;70.90
69382;DHT22;56560;50.692;12.844;2023-02-15T17:27:29;2.80;70.90
69382;DHT22;56560;50.692;12.844;2023-02-15T17:30:00;2.90;69.90
69382;DHT22;56560;50.692;12.844;2023-02-15T17:32:30;3.00;70.00
69382;DHT22;56560;50.692;12.844;2023-02-15T17:35:06;3.00;68.80
69382;DHT22;56560;50.692;12.844;2023-02-15T17:40:26;3.10;69.00
69382;DHT22;56560;50.692;12.844;2023-02-15T17:42:52;3.10;69.80
69382;DHT22;56560;50.692;12.844;2023-02-15T17:45:19;3.00;70.00
69382;DHT22;56560;50.692;12.844;2023-02-15T17:47:47;3.00;69.40
69382;DHT22;56560;50.692;12.844;2023-02-15T17:50:26;3.00;69.20
69382;DHT22;56560;50.692;12.844;2023-02-15T17:52:54;2.90;69.60
69382;DHT22;56560;50.692;12.844;2023-02-15T17:55:22;2.80;69.70
69382;DHT22;56560;50.692;12.844;2023-02-15T17:58:03;2.80;70.00
69382;DHT22;56560;50.692;12.844;2023-02-15T18:00:35;2.70;69.40
69382;DHT22;56560;50.692;12.844;2023-02-15T18:03:19;2.70;68.40
69382;DHT22;56560;50.692;12.844;2023-02-15T18:06:03;2.70;69.60
69382;DHT22;56560;50.692;12.844;2023-02-15T18:08:48;2.60;68.20
69382;DHT22;56560;50.692;12.844;2023-02-15T18:11:32;2.70;67.50
69382;DHT22;56560;50.692;12.844;2023-02-15T18:14:09;2.70;67.90
69382;DHT22;56560;50.692;12.844;2023-02-15T18:16:41;2.60;69.30
69382;DHT22;56560;50.692;12.844;2023-02-15T18:19:24;2.60;69.40
69382;DHT22;56560;50.692;12.844;2023-02-15T18:21:51;2.50;68.20
69382;DHT22;56560;50.692;12.844;2023-02-15T18:24:25;2.50;68.60
69382;DHT22;56560;50.692;12.844;2023-02-15T18:26:54;2.60;66.90
69382;DHT22;56560;50.692;12.844;2023-02-15T18:29:20;2.60;67.00
69382;DHT22;56560;50.692;12.844;2023-02-15T18:31:50;2.60;66.70
69382;DHT22;56560;50.692;12.844;2023-02-15T18:36:46;2.50;66.40
69382;DHT22;56560;50.692;12.844;2023-02-15T18:39:27;2.50;67.60
69382;DHT22;56560;50.692;12.844;2023-02-15T18:41:54;2.30;68.80
69382;DHT22;56560;50.692;12.844;2023-02-15T18:44:20;2.20;69.90
69382;DHT22;56560;50.692;12.844;2023-02-15T18:46:46;2.00;72.10
69382;DHT22;56560;50.692;12.844;2023-02-15T18:49:11;1.90;72.50
69382;DHT22;56560;50.692;12.844;2023-02-15T18:51:37;1.80;73.20
69382;DHT22;56560;50.692;12.844;2023-02-15T18:54:09;1.70;73.60
69382;DHT22;56560;50.692;12.844;2023-02-15T18:56:38;1.60;74.10
69382;DHT22;56560;50.692;12.844;2023-02-15T18:59:03;1.50;74.10